Lacy, Texas
Current Conditions -  °F | °C
As of 9:53 PM on Wednesday 22 Oct 2014 (Local Time) from KLFK Reporting Station
Clear Clear  
Wind Chill: 63°   Ceiling: Unl
Heat Index: 63°   Visibility: 10mi
Dew Point: 55°   Wind: 5mph
Humidity: 75%   Direction: 70°ENE
Pressure: 30.12"   Gusts: NA
Location:  31.0585°N, 95.0561°W
Report Text: KLFK 230253Z AUTO 07004KT 10SM CLR 17/13 A3012 RMK AO2 SLP197 T01720128 51017
Loading
Personal Weather Stations






























Interactive Weather Map
Tropical Storm Tracking
New forecast layout! Learn more

10-Day Weather Forecast

Advertisements
Track Severe Weather on mobile